sensor_id;sensor_type;location;lat;lon;timestamp;P1;durP1;ratioP1;P2;durP2;ratioP2
80409;SDS011;69746;45.596;10.154;2023-05-07T00:01:04;5.47;;;4.97;;
80409;SDS011;69746;45.596;10.154;2023-05-07T00:03:32;5.43;;;4.85;;
80409;SDS011;69746;45.596;10.154;2023-05-07T00:05:58;5.25;;;4.75;;
80409;SDS011;69746;45.596;10.154;2023-05-07T00:08:25;5.05;;;4.65;;
80409;SDS011;69746;45.596;10.154;2023-05-07T00:10:51;6.47;;;5.13;;
80409;SDS011;69746;45.596;10.154;2023-05-07T00:13:22;5.28;;;4.55;;
80409;SDS011;69746;45.596;10.154;2023-05-07T00:15:48;4.93;;;4.43;;
80409;SDS011;69746;45.596;10.154;2023-05-07T00:18:17;5.35;;;4.85;;
80409;SDS011;69746;45.596;10.154;2023-05-07T00:20:46;5.05;;;4.55;;
80409;SDS011;69746;45.596;10.154;2023-05-07T00:23:15;4.93;;;4.43;;
80409;SDS011;69746;45.596;10.154;2023-05-07T00:25:42;5.38;;;4.88;;
80409;SDS011;69746;45.596;10.154;2023-05-07T00:28:08;5.30;;;4.80;;
80409;SDS011;69746;45.596;10.154;2023-05-07T00:30:33;5.15;;;4.65;;
80409;SDS011;69746;45.596;10.154;2023-05-07T00:32:59;5.57;;;5.07;;
80409;SDS011;69746;45.596;10.154;2023-05-07T00:35:27;5.53;;;4.70;;
80409;SDS011;69746;45.596;10.154;2023-05-07T00:37:54;4.82;;;4.30;;
80409;SDS011;69746;45.596;10.154;2023-05-07T00:40:21;4.97;;;4.47;;
80409;SDS011;69746;45.596;10.154;2023-05-07T00:42:50;4.93;;;4.53;;
80409;SDS011;69746;45.596;10.154;2023-05-07T00:45:22;4.80;;;4.35;;
80409;SDS011;69746;45.596;10.154;2023-05-07T00:47:57;5.43;;;4.93;;
80409;SDS011;69746;45.596;10.154;2023-05-07T00:50:26;5.00;;;4.50;;
80409;SDS011;69746;45.596;10.154;2023-05-07T00:52:53;5.18;;;4.68;;
80409;SDS011;69746;45.596;10.154;2023-05-07T00:55:21;4.80;;;4.40;;
80409;SDS011;69746;45.596;10.154;2023-05-07T00:57:48;4.95;;;4.35;;
80409;SDS011;69746;45.596;10.154;2023-05-07T01:00:15;5.55;;;4.93;;
80409;SDS011;69746;45.596;10.154;2023-05-07T01:02:48;5.30;;;4.80;;
80409;SDS011;69746;45.596;10.154;2023-05-07T01:05:15;5.10;;;4.60;;
80409;SDS011;69746;45.596;10.154;2023-05-07T01:07:47;5.43;;;4.93;;
80409;SDS011;69746;45.596;10.154;2023-05-07T01:10:15;5.43;;;4.90;;
80409;SDS011;69746;45.596;10.154;2023-05-07T01:12:42;5.45;;;4.95;;
80409;SDS011;69746;45.596;10.154;2023-05-07T01:15:11;4.97;;;4.47;;
80409;SDS011;69746;45.596;10.154;2023-05-07T01:17:39;5.60;;;5.03;;
80409;SDS011;69746;45.596;10.154;2023-05-07T01:20:06;5.20;;;4.35;;
80409;SDS011;69746;45.596;10.154;2023-05-07T01:22:34;5.20;;;4.70;;
80409;SDS011;69746;45.596;10.154;2023-05-07T01:25:03;4.85;;;4.38;;
80409;SDS011;69746;45.596;10.154;2023-05-07T01:27:30;4.80;;;4.30;;
80409;SDS011;69746;45.596;10.154;2023-05-07T01:29:56;4.97;;;4.47;;
80409;SDS011;69746;45.596;10.154;2023-05-07T01:35:02;4.72;;;4.32;;
80409;SDS011;69746;45.596;10.154;2023-05-07T01:37:33;5.18;;;4.68;;
80409;SDS011;69746;45.596;10.154;2023-05-07T01:40:01;4.85;;;4.30;;
80409;SDS011;69746;45.596;10.154;2023-05-07T01:42:28;4.80;;;4.40;;
80409;SDS011;69746;45.596;10.154;2023-05-07T01:44:55;5.65;;;5.15;;
80409;SDS011;69746;45.596;10.154;2023-05-07T01:47:21;4.90;;;4.50;;
80409;SDS011;69746;45.596;10.154;2023-05-07T01:49:49;4.93;;;4.43;;
80409;SDS011;69746;45.596;10.154;2023-05-07T01:52:16;4.97;;;4.47;;
80409;SDS011;69746;45.596;10.154;2023-05-07T01:54:42;4.97;;;4.57;;
80409;SDS011;69746;45.596;10.154;2023-05-07T01:57:09;5.10;;;4.70;;
80409;SDS011;69746;45.596;10.154;2023-05-07T01:59:36;4.82;;;4.40;;
80409;SDS011;69746;45.596;10.154;2023-05-07T02:02:02;5.15;;;4.65;;
80409;SDS011;69746;45.596;10.154;2023-05-07T02:04:28;4.70;;;4.25;;
80409;SDS011;69746;45.596;10.154;2023-05-07T02:06:54;5.13;;;4.63;;
80409;SDS011;69746;45.596;10.154;2023-05-07T02:09:21;5.18;;;4.78;;
80409;SDS011;69746;45.596;10.154;2023-05-07T02:11:48;4.85;;;4.35;;
80409;SDS011;69746;45.596;10.154;2023-05-07T02:14:14;4.95;;;4.35;;
80409;SDS011;69746;45.596;10.154;2023-05-07T02:16:40;5.90;;;4.57;;
80409;SDS011;69746;45.596;10.154;2023-05-07T02:19:07;5.13;;;4.25;;
80409;SDS011;69746;45.596;10.154;2023-05-07T02:21:36;4.55;;;4.15;;
80409;SDS011;69746;45.596;10.154;2023-05-07T02:24:01;5.00;;;4.50;;
80409;SDS011;69746;45.596;10.154;2023-05-07T02:26:27;4.55;;;4.15;;
80409;SDS011;69746;45.596;10.154;2023-05-07T02:28:56;4.35;;;3.95;;
80409;SDS011;69746;45.596;10.154;2023-05-07T02:31:22;4.35;;;3.95;;
80409;SDS011;69746;45.596;10.154;2023-05-07T02:33:48;4.70;;;4.28;;
80409;SDS011;69746;45.596;10.154;2023-05-07T02:36:15;4.75;;;4.35;;
80409;SDS011;69746;45.596;10.154;2023-05-07T02:38:42;4.75;;;4.25;;
80409;SDS011;69746;45.596;10.154;2023-05-07T02:41:08;4.70;;;4.20;;
80409;SDS011;69746;45.596;10.154;2023-05-07T02:43:34;4.45;;;4.05;;
80409;SDS011;69746;45.596;10.154;2023-05-07T02:46:03;4.70;;;4.30;;
80409;SDS011;69746;45.596;10.154;2023-05-07T02:48:31;4.72;;;4.20;;
80409;SDS011;69746;45.596;10.154;2023-05-07T02:50:58;5.45;;;4.93;;
80409;SDS011;69746;45.596;10.154;2023-05-07T02:53:24;4.55;;;4.15;;
80409;SDS011;69746;45.596;10.154;2023-05-07T02:55:59;4.90;;;4.50;;
80409;SDS011;69746;45.596;10.154;2023-05-07T02:58:27;4.75;;;4.35;;
80409;SDS011;69746;45.596;10.154;2023-05-07T03:00:53;4.72;;;4.30;;
80409;SDS011;69746;45.596;10.154;2023-05-07T03:03:21;4.93;;;4.43;;
80409;SDS011;69746;45.596;10.154;2023-05-07T03:05:47;4.63;;;4.22;;
80409;SDS011;69746;45.596;10.154;2023-05-07T03:08:13;4.82;;;4.38;;
80409;SDS011;69746;45.596;10.154;2023-05-07T03:10:39;4.85;;;4.38;;
80409;SDS011;69746;45.596;10.154;2023-05-07T03:13:08;4.38;;;3.97;;
80409;SDS011;69746;45.596;10.154;2023-05-07T03:15:34;4.22;;;3.83;;
80409;SDS011;69746;45.596;10.154;2023-05-07T03:18:00;4.80;;;4.35;;
80409;SDS011;69746;45.596;10.154;2023-05-07T03:20:27;4.45;;;4.05;;
80409;SDS011;69746;45.596;10.154;2023-05-07T03:22:53;4.55;;;4.15;;
80409;SDS011;69746;45.596;10.154;2023-05-07T03:25:19;4.50;;;4.10;;
80409;SDS011;69746;45.596;10.154;2023-05-07T03:27:45;4.43;;;4.00;;
80409;SDS011;69746;45.596;10.154;2023-05-07T03:30:11;4.78;;;4.28;;
80409;SDS011;69746;45.596;10.154;2023-05-07T03:32:38;4.72;;;4.30;;
80409;SDS011;69746;45.596;10.154;2023-05-07T03:35:04;4.43;;;4.03;;
80409;SDS011;69746;45.596;10.154;2023-05-07T03:37:30;4.78;;;4.28;;
80409;SDS011;69746;45.596;10.154;2023-05-07T03:39:56;4.72;;;4.20;;
80409;SDS011;69746;45.596;10.154;2023-05-07T03:42:23;4.45;;;4.05;;
80409;SDS011;69746;45.596;10.154;2023-05-07T03:44:48;5.38;;;4.45;;
80409;SDS011;69746;45.596;10.154;2023-05-07T03:47:15;4.57;;;4.18;;
80409;SDS011;69746;45.596;10.154;2023-05-07T03:49:42;4.32;;;3.92;;
80409;SDS011;69746;45.596;10.154;2023-05-07T03:52:08;4.18;;;3.78;;
80409;SDS011;69746;45.596;10.154;2023-05-07T03:54:34;4.97;;;4.35;;
80409;SDS011;69746;45.596;10.154;2023-05-07T03:57:01;4.22;;;3.83;;
80409;SDS011;69746;45.596;10.154;2023-05-07T03:59:27;4.78;;;4.30;;
80409;SDS011;69746;45.596;10.154;2023-05-07T04:01:55;4.82;;;4.43;;
80409;SDS011;69746;45.596;10.154;2023-05-07T04:04:20;4.20;;;3.80;;
80409;SDS011;69746;45.596;10.154;2023-05-07T04:06:46;4.57;;;4.15;;
80409;SDS011;69746;45.596;10.154;2023-05-07T04:09:13;4.32;;;3.92;;
80409;SDS011;69746;45.596;10.154;2023-05-07T04:11:39;4.30;;;3.90;;
80409;SDS011;69746;45.596;10.154;2023-05-07T04:14:05;4.63;;;4.20;;
80409;SDS011;69746;45.596;10.154;2023-05-07T04:16:32;4.45;;;4.05;;
80409;SDS011;69746;45.596;10.154;2023-05-07T04:19:00;4.20;;;3.80;;
80409;SDS011;69746;45.596;10.154;2023-05-07T04:21:26;4.53;;;4.13;;
80409;SDS011;69746;45.596;10.154;2023-05-07T04:23:55;4.63;;;3.72;;
80409;SDS011;69746;45.596;10.154;2023-05-07T04:26:22;4.53;;;4.00;;
80409;SDS011;69746;45.596;10.154;2023-05-07T04:28:48;4.20;;;3.78;;
80409;SDS011;69746;45.596;10.154;2023-05-07T04:31:14;4.07;;;3.63;;
80409;SDS011;69746;45.596;10.154;2023-05-07T04:33:43;4.63;;;4.18;;
80409;SDS011;69746;45.596;10.154;2023-05-07T04:36:08;4.18;;;3.78;;
80409;SDS011;69746;45.596;10.154;2023-05-07T04:38:34;4.40;;;4.00;;
80409;SDS011;69746;45.596;10.154;2023-05-07T04:41:03;4.47;;;4.07;;
80409;SDS011;69746;45.596;10.154;2023-05-07T04:43:30;4.20;;;3.80;;
80409;SDS011;69746;45.596;10.154;2023-05-07T04:45:56;4.35;;;3.65;;
80409;SDS011;69746;45.596;10.154;2023-05-07T04:48:22;4.00;;;3.60;;
80409;SDS011;69746;45.596;10.154;2023-05-07T04:50:49;4.45;;;4.05;;
80409;SDS011;69746;45.596;10.154;2023-05-07T04:53:19;4.32;;;3.92;;
80409;SDS011;69746;45.596;10.154;2023-05-07T04:55:45;4.22;;;3.83;;
80409;SDS011;69746;45.596;10.154;2023-05-07T04:58:11;4.40;;;4.00;;
80409;SDS011;69746;45.596;10.154;2023-05-07T05:00:38;4.35;;;3.90;;
80409;SDS011;69746;45.596;10.154;2023-05-07T05:03:05;4.78;;;4.07;;
80409;SDS011;69746;45.596;10.154;2023-05-07T05:08:00;4.13;;;3.72;;
80409;SDS011;69746;45.596;10.154;2023-05-07T05:10:26;4.45;;;4.05;;
80409;SDS011;69746;45.596;10.154;2023-05-07T05:12:52;4.75;;;4.32;;
80409;SDS011;69746;45.596;10.154;2023-05-07T05:15:18;3.90;;;3.60;;
80409;SDS011;69746;45.596;10.154;2023-05-07T05:17:44;4.28;;;3.88;;
80409;SDS011;69746;45.596;10.154;2023-05-07T05:20:10;4.20;;;3.80;;
80409;SDS011;69746;45.596;10.154;2023-05-07T05:22:37;3.88;;;3.55;;
80409;SDS011;69746;45.596;10.154;2023-05-07T05:25:04;4.88;;;3.97;;
80409;SDS011;69746;45.596;10.154;2023-05-07T05:27:30;5.25;;;3.85;;
80409;SDS011;69746;45.596;10.154;2023-05-07T05:29:56;4.43;;;4.03;;
80409;SDS011;69746;45.596;10.154;2023-05-07T05:32:22;3.92;;;3.63;;
80409;SDS011;69746;45.596;10.154;2023-05-07T05:34:49;4.15;;;3.75;;
80409;SDS011;69746;45.596;10.154;2023-05-07T05:37:15;4.32;;;3.80;;
80409;SDS011;69746;45.596;10.154;2023-05-07T05:39:41;4.10;;;3.70;;
80409;SDS011;69746;45.596;10.154;2023-05-07T05:42:07;4.18;;;3.78;;
80409;SDS011;69746;45.596;10.154;2023-05-07T05:44:33;3.60;;;3.30;;
80409;SDS011;69746;45.596;10.154;2023-05-07T05:46:59;3.90;;;3.50;;
80409;SDS011;69746;45.596;10.154;2023-05-07T05:49:25;4.07;;;3.67;;
80409;SDS011;69746;45.596;10.154;2023-05-07T05:51:51;3.97;;;3.63;;
80409;SDS011;69746;45.596;10.154;2023-05-07T05:54:18;4.40;;;4.00;;
80409;SDS011;69746;45.596;10.154;2023-05-07T05:56:45;4.00;;;3.60;;
80409;SDS011;69746;45.596;10.154;2023-05-07T05:59:11;4.03;;;3.63;;
80409;SDS011;69746;45.596;10.154;2023-05-07T06:01:37;3.70;;;3.40;;
80409;SDS011;69746;45.596;10.154;2023-05-07T06:04:04;4.32;;;3.92;;
80409;SDS011;69746;45.596;10.154;2023-05-07T06:06:30;4.20;;;3.80;;
80409;SDS011;69746;45.596;10.154;2023-05-07T06:08:57;4.30;;;3.90;;
80409;SDS011;69746;45.596;10.154;2023-05-07T06:11:23;4.20;;;3.80;;
80409;SDS011;69746;45.596;10.154;2023-05-07T06:13:50;4.20;;;3.80;;
80409;SDS011;69746;45.596;10.154;2023-05-07T06:16:17;4.25;;;3.85;;
80409;SDS011;69746;45.596;10.154;2023-05-07T06:18:43;4.30;;;3.85;;
80409;SDS011;69746;45.596;10.154;2023-05-07T06:21:13;4.38;;;3.97;;
80409;SDS011;69746;45.596;10.154;2023-05-07T06:23:40;4.15;;;3.75;;
80409;SDS011;69746;45.596;10.154;2023-05-07T06:26:06;3.75;;;3.45;;
80409;SDS011;69746;45.596;10.154;2023-05-07T06:28:32;4.10;;;3.65;;
80409;SDS011;69746;45.596;10.154;2023-05-07T06:33:39;3.75;;;3.45;;
80409;SDS011;69746;45.596;10.154;2023-05-07T06:36:08;4.68;;;4.18;;
80409;SDS011;69746;45.596;10.154;2023-05-07T06:38:35;3.95;;;3.30;;
80409;SDS011;69746;45.596;10.154;2023-05-07T06:41:07;4.03;;;3.70;;
80409;SDS011;69746;45.596;10.154;2023-05-07T06:43:35;4.05;;;3.65;;
80409;SDS011;69746;45.596;10.154;2023-05-07T06:46:01;3.53;;;3.22;;
80409;SDS011;69746;45.596;10.154;2023-05-07T06:48:27;4.10;;;3.70;;
80409;SDS011;69746;45.596;10.154;2023-05-07T06:50:53;4.00;;;3.60;;
80409;SDS011;69746;45.596;10.154;2023-05-07T06:53:20;4.00;;;3.60;;
80409;SDS011;69746;45.596;10.154;2023-05-07T06:55:46;4.20;;;3.80;;
80409;SDS011;69746;45.596;10.154;2023-05-07T06:58:12;3.78;;;3.38;;
80409;SDS011;69746;45.596;10.154;2023-05-07T07:00:38;3.75;;;3.42;;
80409;SDS011;69746;45.596;10.154;2023-05-07T07:03:06;3.65;;;3.35;;
80409;SDS011;69746;45.596;10.154;2023-05-07T07:05:32;4.20;;;3.80;;
80409;SDS011;69746;45.596;10.154;2023-05-07T07:07:58;5.18;;;3.83;;
80409;SDS011;69746;45.596;10.154;2023-05-07T07:10:25;3.95;;;3.45;;
80409;SDS011;69746;45.596;10.154;2023-05-07T07:12:50;4.43;;;4.03;;
80409;SDS011;69746;45.596;10.154;2023-05-07T07:15:19;4.10;;;3.70;;
80409;SDS011;69746;45.596;10.154;2023-05-07T07:17:45;4.57;;;3.50;;
80409;SDS011;69746;45.596;10.154;2023-05-07T07:20:12;3.88;;;3.47;;
80409;SDS011;69746;45.596;10.154;2023-05-07T07:22:38;4.30;;;3.90;;
80409;SDS011;69746;45.596;10.154;2023-05-07T07:25:04;3.88;;;3.53;;
80409;SDS011;69746;45.596;10.154;2023-05-07T07:27:30;4.03;;;3.60;;
80409;SDS011;69746;45.596;10.154;2023-05-07T07:29:59;4.25;;;3.72;;
80409;SDS011;69746;45.596;10.154;2023-05-07T07:32:25;4.25;;;3.00;;
80409;SDS011;69746;45.596;10.154;2023-05-07T07:34:51;4.10;;;3.35;;
80409;SDS011;69746;45.596;10.154;2023-05-07T07:37:17;3.92;;;3.63;;
80409;SDS011;69746;45.596;10.154;2023-05-07T07:39:43;4.30;;;3.28;;
80409;SDS011;69746;45.596;10.154;2023-05-07T07:42:08;4.20;;;3.55;;
80409;SDS011;69746;45.596;10.154;2023-05-07T07:44:34;3.83;;;3.42;;
80409;SDS011;69746;45.596;10.154;2023-05-07T07:47:00;3.65;;;3.35;;
80409;SDS011;69746;45.596;10.154;2023-05-07T07:49:26;4.32;;;3.53;;
80409;SDS011;69746;45.596;10.154;2023-05-07T07:51:53;4.90;;;3.72;;
80409;SDS011;69746;45.596;10.154;2023-05-07T07:54:20;5.80;;;3.28;;
80409;SDS011;69746;45.596;10.154;2023-05-07T07:56:45;4.78;;;3.10;;
80409;SDS011;69746;45.596;10.154;2023-05-07T07:59:11;3.67;;;3.00;;
80409;SDS011;69746;45.596;10.154;2023-05-07T08:01:39;3.78;;;3.30;;
80409;SDS011;69746;45.596;10.154;2023-05-07T08:04:05;5.13;;;3.33;;
80409;SDS011;69746;45.596;10.154;2023-05-07T08:06:31;3.95;;;3.55;;
80409;SDS011;69746;45.596;10.154;2023-05-07T08:08:57;6.93;;;3.35;;
80409;SDS011;69746;45.596;10.154;2023-05-07T08:11:23;3.40;;;3.10;;
80409;SDS011;69746;45.596;10.154;2023-05-07T08:13:48;4.15;;;3.22;;
80409;SDS011;69746;45.596;10.154;2023-05-07T08:16:15;3.78;;;3.40;;
80409;SDS011;69746;45.596;10.154;2023-05-07T08:18:41;3.55;;;3.25;;
80409;SDS011;69746;45.596;10.154;2023-05-07T08:21:07;4.50;;;3.35;;
80409;SDS011;69746;45.596;10.154;2023-05-07T08:23:33;4.60;;;3.30;;
80409;SDS011;69746;45.596;10.154;2023-05-07T08:26:00;3.53;;;3.22;;
80409;SDS011;69746;45.596;10.154;2023-05-07T08:28:26;3.88;;;3.20;;
80409;SDS011;69746;45.596;10.154;2023-05-07T08:30:52;3.75;;;3.20;;
80409;SDS011;69746;45.596;10.154;2023-05-07T08:33:21;3.80;;;3.28;;
80409;SDS011;69746;45.596;10.154;2023-05-07T08:35:53;4.05;;;3.33;;
80409;SDS011;69746;45.596;10.154;2023-05-07T08:38:19;3.33;;;2.80;;
80409;SDS011;69746;45.596;10.154;2023-05-07T08:40:48;3.25;;;2.95;;
80409;SDS011;69746;45.596;10.154;2023-05-07T08:43:18;3.20;;;2.90;;
80409;SDS011;69746;45.596;10.154;2023-05-07T08:45:46;3.47;;;2.75;;
80409;SDS011;69746;45.596;10.154;2023-05-07T08:50:47;4.68;;;3.40;;
80409;SDS011;69746;45.596;10.154;2023-05-07T08:53:13;4.65;;;3.30;;
80409;SDS011;69746;45.596;10.154;2023-05-07T08:55:44;3.45;;;3.15;;
80409;SDS011;69746;45.596;10.154;2023-05-07T08:58:11;5.47;;;3.35;;
80409;SDS011;69746;45.596;10.154;2023-05-07T09:00:37;3.15;;;2.70;;
80409;SDS011;69746;45.596;10.154;2023-05-07T09:03:08;3.65;;;2.90;;
80409;SDS011;69746;45.596;10.154;2023-05-07T09:05:37;3.60;;;3.20;;
80409;SDS011;69746;45.596;10.154;2023-05-07T09:08:04;3.92;;;2.80;;
80409;SDS011;69746;45.596;10.154;2023-05-07T09:10:33;3.30;;;3.00;;
80409;SDS011;69746;45.596;10.154;2023-05-07T09:12:59;3.47;;;3.10;;
80409;SDS011;69746;45.596;10.154;2023-05-07T09:15:26;3.25;;;2.95;;
80409;SDS011;69746;45.596;10.154;2023-05-07T09:20:19;3.40;;;3.10;;
80409;SDS011;69746;45.596;10.154;2023-05-07T09:22:46;3.25;;;2.95;;
80409;SDS011;69746;45.596;10.154;2023-05-07T09:25:14;3.40;;;3.10;;
80409;SDS011;69746;45.596;10.154;2023-05-07T09:27:41;4.57;;;3.25;;
80409;SDS011;69746;45.596;10.154;2023-05-07T09:30:07;4.60;;;3.17;;
80409;SDS011;69746;45.596;10.154;2023-05-07T09:32:36;3.58;;;3.28;;
80409;SDS011;69746;45.596;10.154;2023-05-07T09:35:04;3.70;;;3.20;;
80409;SDS011;69746;45.596;10.154;2023-05-07T09:37:31;3.17;;;2.88;;
80409;SDS011;69746;45.596;10.154;2023-05-07T09:39:57;4.00;;;2.80;;
80409;SDS011;69746;45.596;10.154;2023-05-07T09:42:24;3.42;;;3.13;;
80409;SDS011;69746;45.596;10.154;2023-05-07T09:44:52;3.83;;;2.85;;
80409;SDS011;69746;45.596;10.154;2023-05-07T09:47:19;3.67;;;3.22;;
80409;SDS011;69746;45.596;10.154;2023-05-07T09:49:49;3.25;;;2.90;;
80409;SDS011;69746;45.596;10.154;2023-05-07T09:52:24;3.70;;;3.30;;
80409;SDS011;69746;45.596;10.154;2023-05-07T09:54:54;3.22;;;2.60;;
80409;SDS011;69746;45.596;10.154;2023-05-07T09:57:24;3.38;;;3.08;;
80409;SDS011;69746;45.596;10.154;2023-05-07T09:59:52;4.40;;;3.15;;
80409;SDS011;69746;45.596;10.154;2023-05-07T10:02:20;3.60;;;3.08;;
80409;SDS011;69746;45.596;10.154;2023-05-07T10:04:50;3.70;;;3.03;;
80409;SDS011;69746;45.596;10.154;2023-05-07T10:07:18;3.75;;;3.45;;
80409;SDS011;69746;45.596;10.154;2023-05-07T10:09:45;3.45;;;2.90;;
80409;SDS011;69746;45.596;10.154;2023-05-07T10:12:13;3.88;;;2.97;;
80409;SDS011;69746;45.596;10.154;2023-05-07T10:14:40;3.30;;;2.85;;
80409;SDS011;69746;45.596;10.154;2023-05-07T10:17:09;3.47;;;3.00;;
80409;SDS011;69746;45.596;10.154;2023-05-07T10:22:05;2.97;;;2.67;;
80409;SDS011;69746;45.596;10.154;2023-05-07T10:24:32;3.00;;;2.63;;
80409;SDS011;69746;45.596;10.154;2023-05-07T10:29:33;3.20;;;2.90;;
80409;SDS011;69746;45.596;10.154;2023-05-07T10:32:19;3.70;;;2.95;;
80409;SDS011;69746;45.596;10.154;2023-05-07T10:35:02;3.00;;;2.70;;
80409;SDS011;69746;45.596;10.154;2023-05-07T10:37:32;5.32;;;2.80;;
80409;SDS011;69746;45.596;10.154;2023-05-07T10:39:59;3.90;;;3.10;;
80409;SDS011;69746;45.596;10.154;2023-05-07T10:42:26;3.28;;;2.97;;
80409;SDS011;69746;45.596;10.154;2023-05-07T10:44:52;3.20;;;2.90;;
80409;SDS011;69746;45.596;10.154;2023-05-07T10:47:18;3.00;;;2.67;;
80409;SDS011;69746;45.596;10.154;2023-05-07T10:53:07;4.13;;;3.25;;
80409;SDS011;69746;45.596;10.154;2023-05-07T10:55:46;3.88;;;2.80;;
80409;SDS011;69746;45.596;10.154;2023-05-07T10:58:22;3.08;;;2.78;;
80409;SDS011;69746;45.596;10.154;2023-05-07T11:00:56;3.47;;;3.15;;
80409;SDS011;69746;45.596;10.154;2023-05-07T11:03:24;3.35;;;3.00;;
80409;SDS011;69746;45.596;10.154;2023-05-07T11:11:18;4.43;;;3.00;;
80409;SDS011;69746;45.596;10.154;2023-05-07T11:13:47;3.05;;;2.75;;
80409;SDS011;69746;45.596;10.154;2023-05-07T11:16:19;3.05;;;2.70;;
80409;SDS011;69746;45.596;10.154;2023-05-07T11:18:51;2.92;;;2.65;;
80409;SDS011;69746;45.596;10.154;2023-05-07T11:24:00;3.40;;;2.97;;
80409;SDS011;69746;45.596;10.154;2023-05-07T11:26:32;3.50;;;2.67;;
80409;SDS011;69746;45.596;10.154;2023-05-07T11:29:12;3.40;;;2.97;;
80409;SDS011;69746;45.596;10.154;2023-05-07T11:31:40;3.15;;;2.85;;
80409;SDS011;69746;45.596;10.154;2023-05-07T11:34:07;3.50;;;3.08;;
80409;SDS011;69746;45.596;10.154;2023-05-07T11:36:34;3.53;;;2.95;;
80409;SDS011;69746;45.596;10.154;2023-05-07T11:41:51;3.00;;;2.70;;
80409;SDS011;69746;45.596;10.154;2023-05-07T11:44:17;3.92;;;3.03;;
80409;SDS011;69746;45.596;10.154;2023-05-07T11:46:44;3.20;;;2.90;;
80409;SDS011;69746;45.596;10.154;2023-05-07T11:49:10;3.15;;;2.85;;
80409;SDS011;69746;45.596;10.154;2023-05-07T11:51:38;3.33;;;2.85;;
80409;SDS011;69746;45.596;10.154;2023-05-07T11:54:06;3.50;;;2.88;;
80409;SDS011;69746;45.596;10.154;2023-05-07T11:56:37;3.03;;;2.72;;
80409;SDS011;69746;45.596;10.154;2023-05-07T11:59:04;3.25;;;2.78;;
80409;SDS011;69746;45.596;10.154;2023-05-07T12:01:31;3.47;;;3.17;;
80409;SDS011;69746;45.596;10.154;2023-05-07T12:03:57;3.20;;;2.78;;
80409;SDS011;69746;45.596;10.154;2023-05-07T12:06:25;3.28;;;2.97;;
80409;SDS011;69746;45.596;10.154;2023-05-07T12:08:52;3.08;;;2.78;;
80409;SDS011;69746;45.596;10.154;2023-05-07T12:11:23;3.53;;;2.85;;
80409;SDS011;69746;45.596;10.154;2023-05-07T12:13:51;2.60;;;2.25;;
80409;SDS011;69746;45.596;10.154;2023-05-07T12:16:17;4.93;;;3.45;;
80409;SDS011;69746;45.596;10.154;2023-05-07T12:18:45;3.35;;;2.97;;
80409;SDS011;69746;45.596;10.154;2023-05-07T12:21:13;3.13;;;2.60;;
80409;SDS011;69746;45.596;10.154;2023-05-07T12:23:42;2.90;;;2.70;;
80409;SDS011;69746;45.596;10.154;2023-05-07T12:26:09;3.10;;;2.80;;
80409;SDS011;69746;45.596;10.154;2023-05-07T12:28:37;2.97;;;2.67;;
80409;SDS011;69746;45.596;10.154;2023-05-07T12:31:04;2.85;;;2.60;;
80409;SDS011;69746;45.596;10.154;2023-05-07T12:33:31;3.45;;;2.67;;
80409;SDS011;69746;45.596;10.154;2023-05-07T12:35:57;3.10;;;2.80;;
80409;SDS011;69746;45.596;10.154;2023-05-07T12:38:23;3.08;;;2.78;;
80409;SDS011;69746;45.596;10.154;2023-05-07T12:40:52;3.40;;;2.95;;
80409;SDS011;69746;45.596;10.154;2023-05-07T12:43:21;2.92;;;2.63;;
80409;SDS011;69746;45.596;10.154;2023-05-07T12:45:50;3.00;;;2.70;;
80409;SDS011;69746;45.596;10.154;2023-05-07T12:48:21;3.85;;;2.60;;
80409;SDS011;69746;45.596;10.154;2023-05-07T12:50:56;3.30;;;2.78;;
80409;SDS011;69746;45.596;10.154;2023-05-07T12:53:29;2.83;;;2.60;;
80409;SDS011;69746;45.596;10.154;2023-05-07T12:55:57;3.17;;;2.88;;
80409;SDS011;69746;45.596;10.154;2023-05-07T12:58:26;2.83;;;2.53;;
80409;SDS011;69746;45.596;10.154;2023-05-07T13:00:55;3.65;;;2.80;;
80409;SDS011;69746;45.596;10.154;2023-05-07T13:03:25;3.00;;;2.70;;
80409;SDS011;69746;45.596;10.154;2023-05-07T13:05:54;3.08;;;2.75;;
80409;SDS011;69746;45.596;10.154;2023-05-07T13:08:28;3.25;;;2.95;;
80409;SDS011;69746;45.596;10.154;2023-05-07T13:10:57;2.95;;;2.55;;
80409;SDS011;69746;45.596;10.154;2023-05-07T13:13:26;3.03;;;2.78;;
80409;SDS011;69746;45.596;10.154;2023-05-07T13:15:52;3.53;;;2.80;;
80409;SDS011;69746;45.596;10.154;2023-05-07T13:18:24;3.50;;;2.65;;
80409;SDS011;69746;45.596;10.154;2023-05-07T13:20:51;3.00;;;2.70;;
80409;SDS011;69746;45.596;10.154;2023-05-07T13:23:22;3.15;;;2.70;;
80409;SDS011;69746;45.596;10.154;2023-05-07T13:25:49;3.53;;;2.50;;
80409;SDS011;69746;45.596;10.154;2023-05-07T13:28:16;2.85;;;2.55;;
80409;SDS011;69746;45.596;10.154;2023-05-07T13:30:42;3.00;;;2.70;;
80409;SDS011;69746;45.596;10.154;2023-05-07T13:33:10;2.80;;;2.50;;
80409;SDS011;69746;45.596;10.154;2023-05-07T13:35:37;4.03;;;2.60;;
80409;SDS011;69746;45.596;10.154;2023-05-07T13:38:03;3.47;;;2.88;;
80409;SDS011;69746;45.596;10.154;2023-05-07T13:40:29;3.03;;;2.72;;
80409;SDS011;69746;45.596;10.154;2023-05-07T13:42:59;2.90;;;2.50;;
80409;SDS011;69746;45.596;10.154;2023-05-07T13:45:44;2.80;;;2.50;;
80409;SDS011;69746;45.596;10.154;2023-05-07T13:48:11;2.80;;;2.55;;
80409;SDS011;69746;45.596;10.154;2023-05-07T13:50:41;2.95;;;2.58;;
80409;SDS011;69746;45.596;10.154;2023-05-07T13:53:07;2.88;;;2.58;;
80409;SDS011;69746;45.596;10.154;2023-05-07T13:55:34;2.95;;;2.70;;
80409;SDS011;69746;45.596;10.154;2023-05-07T13:58:01;3.05;;;2.75;;
80409;SDS011;69746;45.596;10.154;2023-05-07T14:00:31;3.03;;;2.45;;
80409;SDS011;69746;45.596;10.154;2023-05-07T14:02:59;2.67;;;2.47;;
80409;SDS011;69746;45.596;10.154;2023-05-07T14:05:25;3.10;;;2.70;;
80409;SDS011;69746;45.596;10.154;2023-05-07T14:10:22;2.85;;;2.55;;
80409;SDS011;69746;45.596;10.154;2023-05-07T14:12:51;3.05;;;2.53;;
80409;SDS011;69746;45.596;10.154;2023-05-07T14:15:17;2.95;;;2.65;;
80409;SDS011;69746;45.596;10.154;2023-05-07T14:17:44;2.80;;;2.50;;
80409;SDS011;69746;45.596;10.154;2023-05-07T14:20:12;3.20;;;2.90;;
80409;SDS011;69746;45.596;10.154;2023-05-07T14:22:39;3.38;;;2.55;;
80409;SDS011;69746;45.596;10.154;2023-05-07T14:25:06;3.20;;;2.85;;
80409;SDS011;69746;45.596;10.154;2023-05-07T14:27:35;2.65;;;2.35;;
80409;SDS011;69746;45.596;10.154;2023-05-07T14:30:04;3.13;;;2.83;;
80409;SDS011;69746;45.596;10.154;2023-05-07T14:32:35;2.95;;;2.50;;
80409;SDS011;69746;45.596;10.154;2023-05-07T14:35:01;2.95;;;2.60;;
80409;SDS011;69746;45.596;10.154;2023-05-07T14:37:28;2.53;;;2.33;;
80409;SDS011;69746;45.596;10.154;2023-05-07T14:39:54;2.83;;;2.55;;
80409;SDS011;69746;45.596;10.154;2023-05-07T14:42:20;2.88;;;2.40;;
80409;SDS011;69746;45.596;10.154;2023-05-07T14:44:50;2.75;;;2.50;;
80409;SDS011;69746;45.596;10.154;2023-05-07T14:47:20;2.42;;;2.22;;
80409;SDS011;69746;45.596;10.154;2023-05-07T14:49:47;2.55;;;2.35;;
80409;SDS011;69746;45.596;10.154;2023-05-07T14:52:13;2.83;;;2.47;;
80409;SDS011;69746;45.596;10.154;2023-05-07T14:54:40;3.80;;;2.65;;
80409;SDS011;69746;45.596;10.154;2023-05-07T14:57:07;2.60;;;2.40;;
80409;SDS011;69746;45.596;10.154;2023-05-07T14:59:36;2.50;;;2.30;;
80409;SDS011;69746;45.596;10.154;2023-05-07T15:02:03;2.72;;;2.10;;
80409;SDS011;69746;45.596;10.154;2023-05-07T15:04:30;2.85;;;2.58;;
80409;SDS011;69746;45.596;10.154;2023-05-07T15:06:57;3.05;;;2.58;;
80409;SDS011;69746;45.596;10.154;2023-05-07T15:09:23;3.05;;;2.65;;